Time;durP1;ratioP1;P1;durP2;ratioP2;P2;SDS_P1;SDS_P2;PMS_P1;PMS_P2;Temp;Humidity;BMP_temperature;BMP_pressure;BME280_temperature;BME280_humidity;BME280_pressure;Samples;Min_cycle;Max_cycle;Signal;HPM_P1;HPM_P2
2023/05/30 00:00:54;;;;;;;1.27;0.80;;;;;;;;;;5020346;28;20073;-63
2023/05/30 00:03:23;;;;;;;3.10;1.00;;;;;;;;;;5023573;28;20045;-61
2023/05/30 00:05:52;;;;;;;1.42;1.00;;;;;;;;;;5023275;28;20053;-60
2023/05/30 00:08:21;;;;;;;1.70;1.02;;;;;;;;;;5019621;28;20100;-59
2023/05/30 00:10:50;;;;;;;2.63;1.20;;;;;;;;;;5018124;28;20065;-66
2023/05/30 00:13:20;;;;;;;1.52;0.88;;;;;;;;;;5019468;28;20045;-61
2023/05/30 00:15:48;;;;;;;1.80;0.80;;;;;;;;;;5021232;28;20045;-62
2023/05/30 00:18:17;;;;;;;4.50;0.93;;;;;;;;;;5021184;28;20050;-61
2023/05/30 00:20:45;;;;;;;2.17;0.90;;;;;;;;;;5017318;28;20140;-61
2023/05/30 00:23:14;;;;;;;0.82;0.60;;;;;;;;;;5013355;28;20045;-63
2023/05/30 00:25:45;;;;;;;3.22;1.42;;;;;;;;;;5022878;28;20113;-61
2023/05/30 00:28:15;;;;;;;1.00;0.88;;;;;;;;;;5020401;28;20057;-60
2023/05/30 00:30:44;;;;;;;3.20;1.20;;;;;;;;;;5021860;28;20116;-63
2023/05/30 00:33:12;;;;;;;3.05;1.15;;;;;;;;;;5022521;28;20499;-60
2023/05/30 00:35:41;;;;;;;4.43;1.27;;;;;;;;;;5019831;28;20053;-61
2023/05/30 00:38:09;;;;;;;49.72;11.90;;;;;;;;;;5018441;28;20103;-64
2023/05/30 00:40:38;;;;;;;3.63;0.93;;;;;;;;;;5024032;28;20135;-60
2023/05/30 00:43:06;;;;;;;3.15;1.20;;;;;;;;;;5017922;28;20403;-60
2023/05/30 00:45:37;;;;;;;7.95;1.63;;;;;;;;;;5019683;28;20060;-62
2023/05/30 00:48:06;;;;;;;1.27;0.85;;;;;;;;;;5018972;28;20060;-59
2023/05/30 00:50:36;;;;;;;2.55;1.17;;;;;;;;;;5022110;28;20052;-60
2023/05/30 00:53:06;;;;;;;2.30;1.10;;;;;;;;;;5021528;28;20402;-62
2023/05/30 00:55:35;;;;;;;1.17;0.90;;;;;;;;;;5016569;28;20430;-61
2023/05/30 00:58:03;;;;;;;5.10;1.30;;;;;;;;;;5022022;28;20125;-59
2023/05/30 01:00:32;;;;;;;2.03;0.95;;;;;;;;;;5024882;28;20128;-60
2023/05/30 01:05:42;;;;;;;2.92;1.23;;;;;;;;;;5030608;28;20045;-64
2023/05/30 01:08:11;;;;;;;1.27;0.75;;;;;;;;;;5032437;28;20088;-67
2023/05/30 01:10:40;;;;;;;6.57;0.95;;;;;;;;;;5033473;28;20045;-66
2023/05/30 01:13:13;;;;;;;0.98;0.70;;;;;;;;;;5031429;28;20046;-64
2023/05/30 01:15:43;;;;;;;1.90;1.10;;;;;;;;;;5032299;28;20077;-64
2023/05/30 01:18:17;;;;;;;1.48;1.00;;;;;;;;;;5032176;28;20057;-67
2023/05/30 01:20:46;;;;;;;3.17;1.33;;;;;;;;;;5032710;28;20049;-64
2023/05/30 01:23:20;;;;;;;2.03;1.08;;;;;;;;;;5031435;28;20108;-64
2023/05/30 01:25:59;;;;;;;2.63;1.00;;;;;;;;;;5032044;28;20091;-63
2023/05/30 01:28:32;;;;;;;1.40;0.95;;;;;;;;;;5032359;28;20103;-63
2023/05/30 01:31:01;;;;;;;4.43;0.90;;;;;;;;;;5032024;28;20068;-68
2023/05/30 01:33:31;;;;;;;3.75;1.25;;;;;;;;;;5009464;28;20076;-63
2023/05/30 01:35:59;;;;;;;2.75;0.85;;;;;;;;;;5017272;28;20079;-66
2023/05/30 01:38:28;;;;;;;2.00;0.98;;;;;;;;;;5013030;28;20046;-64
2023/05/30 01:40:58;;;;;;;4.20;1.00;;;;;;;;;;5018348;28;20460;-64
2023/05/30 01:43:38;;;;;;;0.93;0.80;;;;;;;;;;5012959;28;20049;-63
2023/05/30 01:46:10;;;;;;;2.65;1.30;;;;;;;;;;5016718;28;20049;-64
2023/05/30 01:48:42;;;;;;;2.53;1.00;;;;;;;;;;5011168;28;20045;-64
2023/05/30 01:51:12;;;;;;;0.73;0.60;;;;;;;;;;5019016;28;20073;-66
2023/05/30 01:53:42;;;;;;;2.22;1.10;;;;;;;;;;5015186;28;20053;-65
2023/05/30 01:56:13;;;;;;;1.65;1.13;;;;;;;;;;5015470;28;20107;-64
2023/05/30 01:58:44;;;;;;;1.65;0.90;;;;;;;;;;5016867;28;20851;-63
2023/05/30 02:01:12;;;;;;;1.10;0.95;;;;;;;;;;5012212;28;20461;-64
2023/05/30 02:03:41;;;;;;;3.65;1.08;;;;;;;;;;4978972;28;1091904;-62
2023/05/30 02:06:09;;;;;;;2.42;1.15;;;;;;;;;;5013417;28;20084;-64
2023/05/30 02:08:38;;;;;;;1.42;0.80;;;;;;;;;;5016235;28;20136;-66
2023/05/30 02:11:06;;;;;;;1.60;0.73;;;;;;;;;;5016319;28;20155;-67
2023/05/30 02:13:35;;;;;;;2.42;1.02;;;;;;;;;;5016234;28;20050;-63
2023/05/30 02:16:06;;;;;;;0.98;0.85;;;;;;;;;;5014381;28;20623;-63
2023/05/30 02:18:34;;;;;;;0.60;0.52;;;;;;;;;;5015201;28;20574;-64
2023/05/30 02:21:03;;;;;;;1.05;0.80;;;;;;;;;;5016428;28;20049;-69
2023/05/30 02:23:31;;;;;;;3.10;0.90;;;;;;;;;;5014148;28;20041;-61
2023/05/30 02:26:00;;;;;;;2.05;1.08;;;;;;;;;;5013877;28;20065;-66
2023/05/30 02:28:29;;;;;;;1.70;1.20;;;;;;;;;;5015647;28;20136;-63
2023/05/30 02:30:57;;;;;;;1.77;0.90;;;;;;;;;;5016856;28;20081;-66
2023/05/30 02:33:28;;;;;;;1.38;0.90;;;;;;;;;;5015454;28;20051;-66
2023/05/30 02:35:56;;;;;;;54.63;50.05;;;;;;;;;;5016093;28;20084;-65
2023/05/30 02:38:25;;;;;;;83.88;13.45;;;;;;;;;;5015612;28;20041;-64
2023/05/30 02:40:53;;;;;;;1999.90;999.90;;;;;;;;;;5012156;28;20064;-67
2023/05/30 02:43:21;;;;;;;4.70;4.43;;;;;;;;;;5018751;28;20049;-65
2023/05/30 02:45:50;;;;;;;1.90;0.75;;;;;;;;;;5018965;28;20076;-63
2023/05/30 02:48:19;;;;;;;1999.90;999.90;;;;;;;;;;5018120;28;20107;-63
2023/05/30 02:50:48;;;;;;;6.18;0.93;;;;;;;;;;5011962;28;20125;-67
2023/05/30 02:53:17;;;;;;;2.53;0.90;;;;;;;;;;5014857;28;20118;-64
2023/05/30 02:55:45;;;;;;;1.13;0.85;;;;;;;;;;5025929;28;20260;-63
2023/05/30 02:58:13;;;;;;;0.82;0.63;;;;;;;;;;5036278;28;21359;-64
2023/05/30 03:00:42;;;;;;;1.60;0.63;;;;;;;;;;5032859;28;21197;-65
2023/05/30 03:03:10;;;;;;;1.08;0.60;;;;;;;;;;5034353;28;20095;-63
2023/05/30 03:05:39;;;;;;;0.98;0.60;;;;;;;;;;5035904;28;20052;-63
2023/05/30 03:08:10;;;;;;;1.30;0.80;;;;;;;;;;5035588;28;20103;-69
2023/05/30 03:10:53;;;;;;;6.68;1.60;;;;;;;;;;5036322;28;20080;-66
2023/05/30 03:13:22;;;;;;;0.52;0.50;;;;;;;;;;5033841;28;20060;-63
2023/05/30 03:15:50;;;;;;;1.80;0.80;;;;;;;;;;5034501;28;20062;-63
2023/05/30 03:18:19;;;;;;;1.55;0.95;;;;;;;;;;5036902;28;20578;-63
2023/05/30 03:20:47;;;;;;;4.75;1.15;;;;;;;;;;5033177;28;20102;-64
2023/05/30 03:23:17;;;;;;;1.60;0.70;;;;;;;;;;5035718;28;20106;-68
2023/05/30 03:25:45;;;;;;;1.90;1.05;;;;;;;;;;5035248;28;20636;-63
2023/05/30 03:28:14;;;;;;;1.58;0.88;;;;;;;;;;5033697;28;20083;-67
2023/05/30 03:30:42;;;;;;;2.20;1.02;;;;;;;;;;5035419;28;20455;-64
2023/05/30 03:33:11;;;;;;;5.90;1.17;;;;;;;;;;5036530;28;20080;-63
2023/05/30 03:35:39;;;;;;;0.77;0.50;;;;;;;;;;5034268;28;20726;-64
2023/05/30 03:38:07;;;;;;;1.83;0.85;;;;;;;;;;5040219;28;20135;-67
2023/05/30 03:40:37;;;;;;;2.60;0.95;;;;;;;;;;5039690;28;20076;-62
2023/05/30 03:43:05;;;;;;;2.95;1.00;;;;;;;;;;5038810;28;20076;-66
2023/05/30 03:45:34;;;;;;;5.93;0.93;;;;;;;;;;5039669;28;20161;-66
2023/05/30 03:48:02;;;;;;;2.45;0.95;;;;;;;;;;5039048;28;20413;-67
2023/05/30 03:50:31;;;;;;;1.20;0.98;;;;;;;;;;5041472;28;20057;-65
2023/05/30 03:52:59;;;;;;;5.55;0.70;;;;;;;;;;5040186;28;20482;-65
2023/05/30 03:55:27;;;;;;;1.88;0.90;;;;;;;;;;5037304;28;20114;-63
2023/05/30 03:57:57;;;;;;;1.92;1.02;;;;;;;;;;5040861;28;20077;-63
2023/05/30 04:00:25;;;;;;;2.58;0.90;;;;;;;;;;5034537;28;20099;-65
2023/05/30 04:02:58;;;;;;;1.70;0.57;;;;;;;;;;5039260;28;20716;-64
2023/05/30 04:05:27;;;;;;;2.03;1.10;;;;;;;;;;5039692;28;20427;-65
2023/05/30 04:07:55;;;;;;;1.27;1.02;;;;;;;;;;5040154;28;20045;-68
2023/05/30 04:10:24;;;;;;;1.33;0.77;;;;;;;;;;5038726;28;20056;-64
2023/05/30 04:12:52;;;;;;;1.33;0.77;;;;;;;;;;5038165;28;20045;-64
2023/05/30 04:15:22;;;;;;;4.75;1.00;;;;;;;;;;5038613;28;20115;-66
2023/05/30 04:17:50;;;;;;;1.70;0.90;;;;;;;;;;5040918;28;20131;-63
2023/05/30 04:20:19;;;;;;;2.00;0.95;;;;;;;;;;5039622;28;20099;-64
2023/05/30 04:22:47;;;;;;;2.33;0.95;;;;;;;;;;5039535;28;20080;-64
2023/05/30 04:25:16;;;;;;;1.17;0.60;;;;;;;;;;5035419;28;20564;-65
2023/05/30 04:27:46;;;;;;;1.30;0.80;;;;;;;;;;5038022;28;20122;-67
2023/05/30 04:30:18;;;;;;;1.73;1.13;;;;;;;;;;5036919;28;20488;-65
2023/05/30 04:32:48;;;;;;;1.58;0.73;;;;;;;;;;5035664;28;20497;-68
2023/05/30 04:35:17;;;;;;;1.23;0.80;;;;;;;;;;5037531;28;20136;-65
2023/05/30 04:37:45;;;;;;;0.55;0.50;;;;;;;;;;5038809;28;20053;-63
2023/05/30 04:40:14;;;;;;;1.92;0.80;;;;;;;;;;5039572;28;20045;-65
2023/05/30 04:42:43;;;;;;;2.60;0.70;;;;;;;;;;5037616;28;20482;-64
2023/05/30 04:45:16;;;;;;;1.23;0.80;;;;;;;;;;5035914;28;20122;-65
2023/05/30 04:47:45;;;;;;;0.70;0.55;;;;;;;;;;5034837;28;20406;-67
2023/05/30 04:50:16;;;;;;;1.65;0.57;;;;;;;;;;5039536;28;20049;-64
2023/05/30 04:52:45;;;;;;;2.30;0.70;;;;;;;;;;5032282;28;20073;-65
2023/05/30 04:55:14;;;;;;;2.10;0.70;;;;;;;;;;5040839;28;20068;-64
2023/05/30 04:57:42;;;;;;;1.10;0.60;;;;;;;;;;5037688;28;20413;-65
2023/05/30 05:00:13;;;;;;;1.08;0.63;;;;;;;;;;5032964;28;21974;-69
2023/05/30 05:02:41;;;;;;;1.70;1.02;;;;;;;;;;5038371;28;20130;-67
2023/05/30 05:05:10;;;;;;;0.93;0.70;;;;;;;;;;5033649;28;20485;-70
2023/05/30 05:07:40;;;;;;;0.82;0.60;;;;;;;;;;5037303;28;20145;-64
2023/05/30 05:10:10;;;;;;;2.05;0.75;;;;;;;;;;5035557;28;20090;-63
2023/05/30 05:12:39;;;;;;;5.18;0.82;;;;;;;;;;5036477;28;20044;-63
2023/05/30 05:15:08;;;;;;;1.55;0.68;;;;;;;;;;5035487;28;20055;-63
2023/05/30 05:17:36;;;;;;;2.60;1.63;;;;;;;;;;5035870;28;20052;-65
2023/05/30 05:20:06;;;;;;;2.03;0.77;;;;;;;;;;5040321;28;20132;-63
2023/05/30 05:22:40;;;;;;;2.10;0.80;;;;;;;;;;5038789;28;20460;-63
2023/05/30 05:25:09;;;;;;;1.63;0.60;;;;;;;;;;5036460;28;20069;-66
2023/05/30 05:27:40;;;;;;;1.95;0.90;;;;;;;;;;5036169;28;20409;-64
2023/05/30 05:30:10;;;;;;;1.10;0.77;;;;;;;;;;5036137;28;20041;-66
2023/05/30 05:32:39;;;;;;;1.77;1.00;;;;;;;;;;5036801;28;20045;-64
2023/05/30 05:35:09;;;;;;;2.97;0.68;;;;;;;;;;5037810;28;20489;-67
2023/05/30 05:37:38;;;;;;;3.75;1.20;;;;;;;;;;5035907;28;20465;-64
2023/05/30 05:40:08;;;;;;;3.63;1.05;;;;;;;;;;5036410;28;20162;-63
2023/05/30 05:42:37;;;;;;;1.77;0.90;;;;;;;;;;5034910;28;20053;-67
2023/05/30 05:45:06;;;;;;;2.63;0.90;;;;;;;;;;5029820;28;20042;-63
2023/05/30 05:47:34;;;;;;;4.63;0.88;;;;;;;;;;5018502;28;20053;-67
2023/05/30 05:50:03;;;;;;;2.00;1.13;;;;;;;;;;5019119;28;20041;-63
2023/05/30 05:52:31;;;;;;;2.83;0.77;;;;;;;;;;5008537;28;20104;-64
2023/05/30 05:54:59;;;;;;;2.67;0.70;;;;;;;;;;5020848;28;20079;-64
2023/05/30 05:57:29;;;;;;;1.17;1.00;;;;;;;;;;5035624;28;20072;-65
2023/05/30 05:59:58;;;;;;;6.03;0.80;;;;;;;;;;5039371;28;20345;-63
2023/05/30 06:02:26;;;;;;;3.83;1.10;;;;;;;;;;5036691;28;20048;-65
2023/05/30 06:04:55;;;;;;;4.20;1.02;;;;;;;;;;5033886;28;20053;-65
2023/05/30 06:07:23;;;;;;;4.43;0.80;;;;;;;;;;5040205;28;20064;-66
2023/05/30 06:09:51;;;;;;;1.55;0.80;;;;;;;;;;5035190;28;20107;-65
2023/05/30 06:12:20;;;;;;;3.05;0.80;;;;;;;;;;5037157;28;20115;-67
2023/05/30 06:14:50;;;;;;;1.65;1.30;;;;;;;;;;5033311;28;20056;-65
2023/05/30 06:17:18;;;;;;;1.50;0.98;;;;;;;;;;5035134;28;20061;-65
2023/05/30 06:19:47;;;;;;;3.78;1.02;;;;;;;;;;5037446;28;20140;-67
2023/05/30 06:22:15;;;;;;;2.08;0.93;;;;;;;;;;5034035;28;21513;-68
2023/05/30 06:24:44;;;;;;;1.55;0.93;;;;;;;;;;5036429;28;20049;-71
2023/05/30 06:27:12;;;;;;;6.07;1.05;;;;;;;;;;5022998;28;20046;-65
2023/05/30 06:29:42;;;;;;;1.58;0.80;;;;;;;;;;5010551;28;20120;-68
2023/05/30 06:32:12;;;;;;;1.50;0.77;;;;;;;;;;5018675;28;20041;-68
2023/05/30 06:34:44;;;;;;;2.42;1.17;;;;;;;;;;5010610;28;21483;-65
2023/05/30 06:37:13;;;;;;;1.95;0.82;;;;;;;;;;5033643;28;20088;-67
2023/05/30 06:39:41;;;;;;;3.95;1.10;;;;;;;;;;5039408;28;20533;-64
2023/05/30 06:42:10;;;;;;;7.93;1.05;;;;;;;;;;5029941;28;20057;-65
2023/05/30 06:44:38;;;;;;;2.92;1.13;;;;;;;;;;5038503;28;20505;-68
2023/05/30 06:47:08;;;;;;;5.47;1.08;;;;;;;;;;5032905;28;20049;-65
2023/05/30 06:49:38;;;;;;;6.68;1.50;;;;;;;;;;5034084;28;20512;-68
2023/05/30 06:52:06;;;;;;;3.13;1.05;;;;;;;;;;5036696;28;20421;-67
2023/05/30 06:54:35;;;;;;;3.95;1.52;;;;;;;;;;5029574;28;20053;-65
2023/05/30 06:57:04;;;;;;;3.15;1.10;;;;;;;;;;5032751;28;20094;-66
2023/05/30 06:59:34;;;;;;;2.53;1.30;;;;;;;;;;5034712;28;20140;-65
2023/05/30 07:02:03;;;;;;;7.82;1.48;;;;;;;;;;5029279;28;20459;-67
2023/05/30 07:04:32;;;;;;;0.85;0.80;;;;;;;;;;5034147;28;20041;-66
2023/05/30 07:07:02;;;;;;;2.38;1.35;;;;;;;;;;5033703;28;20048;-68
2023/05/30 07:09:30;;;;;;;6.20;1.95;;;;;;;;;;5032880;28;20144;-67
2023/05/30 07:11:58;;;;;;;2.97;1.20;;;;;;;;;;5038050;28;20841;-66
2023/05/30 07:14:27;;;;;;;4.03;1.30;;;;;;;;;;5040755;28;20076;-66
2023/05/30 07:16:55;;;;;;;2.25;0.98;;;;;;;;;;5034101;28;20118;-64
2023/05/30 07:19:25;;;;;;;2.72;0.98;;;;;;;;;;5041499;28;20052;-70
2023/05/30 07:21:53;;;;;;;5.18;1.83;;;;;;;;;;5033420;28;20292;-65
2023/05/30 07:24:23;;;;;;;1.50;1.00;;;;;;;;;;5039255;28;20084;-65
2023/05/30 07:26:51;;;;;;;1.90;0.88;;;;;;;;;;5038593;28;20403;-64
2023/05/30 07:29:20;;;;;;;1.20;0.85;;;;;;;;;;5035001;28;20080;-64
2023/05/30 07:31:48;;;;;;;2.17;1.98;;;;;;;;;;5035468;28;20041;-67
2023/05/30 07:34:17;;;;;;;3.60;1.05;;;;;;;;;;5039330;28;20060;-65
2023/05/30 07:36:45;;;;;;;2.47;1.50;;;;;;;;;;5031466;28;20430;-67
2023/05/30 07:39:14;;;;;;;5.32;1.75;;;;;;;;;;5038955;28;20535;-65
2023/05/30 07:41:43;;;;;;;1.20;0.90;;;;;;;;;;5038701;28;20083;-65
2023/05/30 07:44:12;;;;;;;4.47;1.50;;;;;;;;;;5033749;28;20160;-67
2023/05/30 07:46:40;;;;;;;8.48;1.55;;;;;;;;;;5035543;28;20045;-64
2023/05/30 07:49:09;;;;;;;2.72;1.40;;;;;;;;;;5040209;28;20073;-66
2023/05/30 07:51:37;;;;;;;5.78;1.33;;;;;;;;;;5038798;28;20053;-72
2023/05/30 07:54:06;;;;;;;1.67;0.93;;;;;;;;;;5041345;28;20049;-71
2023/05/30 07:56:35;;;;;;;3.25;1.48;;;;;;;;;;5037380;28;20056;-65
2023/05/30 07:59:05;;;;;;;1.98;1.25;;;;;;;;;;5038518;28;20049;-66
2023/05/30 08:01:33;;;;;;;1.90;0.93;;;;;;;;;;5034844;28;20114;-66
2023/05/30 08:04:02;;;;;;;2.97;1.30;;;;;;;;;;5036105;28;20052;-65
2023/05/30 08:06:31;;;;;;;3.25;1.10;;;;;;;;;;5039122;28;20098;-67
2023/05/30 08:08:59;;;;;;;1.58;1.10;;;;;;;;;;5039122;28;20045;-69
2023/05/30 08:11:28;;;;;;;7.88;1.10;;;;;;;;;;5036346;28;20084;-65
2023/05/30 08:13:56;;;;;;;10.50;1.73;;;;;;;;;;5038244;28;20044;-69
2023/05/30 08:16:26;;;;;;;2.10;0.95;;;;;;;;;;5039612;28;20052;-64
2023/05/30 08:18:55;;;;;;;4.97;1.30;;;;;;;;;;5039543;28;20049;-64
2023/05/30 08:21:24;;;;;;;3.63;1.42;;;;;;;;;;5036947;28;20143;-70
2023/05/30 08:23:52;;;;;;;1.58;1.00;;;;;;;;;;5039722;28;20048;-64
2023/05/30 08:26:24;;;;;;;1.85;1.08;;;;;;;;;;5038021;28;20114;-65
2023/05/30 08:28:53;;;;;;;1.77;0.90;;;;;;;;;;5032333;28;20041;-65
2023/05/30 08:31:21;;;;;;;1.88;1.35;;;;;;;;;;5041226;28;20053;-71
2023/05/30 08:33:51;;;;;;;2.78;1.20;;;;;;;;;;5038236;28;20049;-68
2023/05/30 08:36:21;;;;;;;4.05;1.27;;;;;;;;;;5038247;28;20563;-64
2023/05/30 08:38:54;;;;;;;4.30;1.15;;;;;;;;;;5037205;28;20082;-65
2023/05/30 08:41:41;;;;;;;2.40;1.13;;;;;;;;;;5036837;28;20136;-64
2023/05/30 08:44:09;;;;;;;3.13;1.30;;;;;;;;;;5038117;28;20079;-65
2023/05/30 08:46:42;;;;;;;1.15;0.60;;;;;;;;;;5034943;28;20057;-66
2023/05/30 08:49:14;;;;;;;6.72;1.10;;;;;;;;;;5036358;28;20744;-69
2023/05/30 08:51:43;;;;;;;3.88;0.93;;;;;;;;;;5034959;28;20348;-65
2023/05/30 08:54:17;;;;;;;2.75;0.80;;;;;;;;;;5038539;28;20053;-65
2023/05/30 08:56:49;;;;;;;2.28;1.40;;;;;;;;;;5040248;28;20048;-69
2023/05/30 08:59:19;;;;;;;3.58;1.75;;;;;;;;;;5041121;28;20110;-66
2023/05/30 09:01:49;;;;;;;1.83;0.70;;;;;;;;;;5041925;28;20069;-67
2023/05/30 09:04:24;;;;;;;2.13;1.00;;;;;;;;;;5041880;28;20064;-67
2023/05/30 09:06:52;;;;;;;2.30;1.02;;;;;;;;;;5038706;28;20048;-66
2023/05/30 09:09:23;;;;;;;4.45;1.27;;;;;;;;;;5037749;28;20040;-66
2023/05/30 09:11:52;;;;;;;3.83;1.20;;;;;;;;;;5037609;28;20452;-66
2023/05/30 09:14:20;;;;;;;2.13;0.98;;;;;;;;;;5038265;28;20052;-70
2023/05/30 09:16:49;;;;;;;3.45;1.23;;;;;;;;;;5035852;28;20049;-65
2023/05/30 09:19:18;;;;;;;2.10;1.27;;;;;;;;;;5038863;28;20188;-65
2023/05/30 09:21:47;;;;;;;5.10;4.60;;;;;;;;;;5029219;28;20112;-65
2023/05/30 09:24:16;;;;;;;1.33;0.80;;;;;;;;;;5040377;28;20119;-65
2023/05/30 09:26:57;;;;;;;2.78;1.08;;;;;;;;;;5036099;28;20567;-66
2023/05/30 09:29:26;;;;;;;2.13;1.10;;;;;;;;;;5038962;28;20041;-65
2023/05/30 09:31:57;;;;;;;2.70;1.05;;;;;;;;;;5033716;28;20073;-65
2023/05/30 09:34:25;;;;;;;3.13;1.27;;;;;;;;;;5039301;28;20056;-67
2023/05/30 09:36:56;;;;;;;6.80;1.38;;;;;;;;;;5038514;28;20708;-66
2023/05/30 09:39:26;;;;;;;3.13;1.08;;;;;;;;;;5036411;28;20477;-65
2023/05/30 09:41:57;;;;;;;2.05;0.98;;;;;;;;;;5040432;28;20049;-70
2023/05/30 09:44:25;;;;;;;1.45;0.85;;;;;;;;;;5041016;28;20091;-66
2023/05/30 09:46:57;;;;;;;1.95;1.13;;;;;;;;;;5038064;28;20049;-66
2023/05/30 09:49:28;;;;;;;1.60;0.85;;;;;;;;;;5039118;28;20041;-65
2023/05/30 09:51:58;;;;;;;1.95;0.70;;;;;;;;;;5039456;28;20115;-64
2023/05/30 09:54:27;;;;;;;2.65;1.17;;;;;;;;;;5036230;28;20141;-65
2023/05/30 09:56:55;;;;;;;3.75;1.13;;;;;;;;;;5034266;28;20292;-66
2023/05/30 09:59:24;;;;;;;19.77;18.58;;;;;;;;;;5035575;28;20068;-65
2023/05/30 10:01:53;;;;;;;1.90;1.13;;;;;;;;;;5034454;28;20118;-69
2023/05/30 10:04:22;;;;;;;1.70;0.93;;;;;;;;;;5033527;28;20061;-64
2023/05/30 10:06:51;;;;;;;2.35;1.45;;;;;;;;;;5028747;28;20049;-67
2023/05/30 10:09:22;;;;;;;1.63;0.90;;;;;;;;;;5030955;28;20069;-70
2023/05/30 10:11:51;;;;;;;2.75;1.90;;;;;;;;;;5035204;28;20486;-66
2023/05/30 10:14:20;;;;;;;3.13;0.90;;;;;;;;;;5038928;28;20477;-67
2023/05/30 10:16:49;;;;;;;2.90;1.20;;;;;;;;;;5038605;28;20052;-65
2023/05/30 10:19:27;;;;;;;1.92;1.17;;;;;;;;;;5033512;28;20099;-67
2023/05/30 10:21:56;;;;;;;1.95;1.08;;;;;;;;;;5035495;28;20041;-66
2023/05/30 10:24:30;;;;;;;2.22;1.20;;;;;;;;;;5035604;28;20100;-69
2023/05/30 10:27:03;;;;;;;1.88;1.08;;;;;;;;;;5030238;28;20103;-70
2023/05/30 10:29:33;;;;;;;6.53;1.00;;;;;;;;;;5039670;28;20059;-66
2023/05/30 10:32:02;;;;;;;1.73;1.08;;;;;;;;;;5035798;28;20444;-67
2023/05/30 10:34:36;;;;;;;2.25;1.13;;;;;;;;;;5037675;28;20134;-66
2023/05/30 10:37:04;;;;;;;1.58;1.05;;;;;;;;;;5038608;28;20049;-66
2023/05/30 10:39:38;;;;;;;2.65;1.05;;;;;;;;;;5042079;28;20095;-65
2023/05/30 10:42:09;;;;;;;3.42;1.10;;;;;;;;;;5037093;28;20071;-66
2023/05/30 10:44:42;;;;;;;1.23;0.73;;;;;;;;;;5037826;28;20416;-66
2023/05/30 10:47:20;;;;;;;2.25;1.40;;;;;;;;;;4998745;28;20059;-69
2023/05/30 10:49:49;;;;;;;1.60;0.90;;;;;;;;;;5036347;28;20501;-66
2023/05/30 10:52:18;;;;;;;3.30;1.02;;;;;;;;;;5035549;28;20160;-69
2023/05/30 10:54:50;;;;;;;1.38;0.95;;;;;;;;;;5034602;28;20056;-68
2023/05/30 10:57:24;;;;;;;2.92;0.77;;;;;;;;;;5035795;28;20504;-68
2023/05/30 10:59:55;;;;;;;2.20;1.25;;;;;;;;;;5037105;28;20628;-68
2023/05/30 11:02:35;;;;;;;2.28;0.90;;;;;;;;;;5033811;28;20048;-70
2023/05/30 11:05:07;;;;;;;5.88;1.48;;;;;;;;;;5038355;28;20461;-70
2023/05/30 11:07:38;;;;;;;7.13;1.13;;;;;;;;;;5018409;28;20510;-66
2023/05/30 11:10:10;;;;;;;3.45;1.02;;;;;;;;;;5019400;28;20081;-67
2023/05/30 11:12:43;;;;;;;1.20;0.70;;;;;;;;;;5014515;28;20453;-67
2023/05/30 11:15:15;;;;;;;2.17;1.05;;;;;;;;;;5021423;28;20128;-67
2023/05/30 11:17:44;;;;;;;2.35;1.20;;;;;;;;;;5035519;28;21818;-68
2023/05/30 11:20:14;;;;;;;1.10;0.90;;;;;;;;;;5036429;28;20213;-68
2023/05/30 11:22:59;;;;;;;1.85;1.23;;;;;;;;;;5035070;28;20452;-67
2023/05/30 11:25:30;;;;;;;3.05;0.98;;;;;;;;;;5028738;28;20107;-69
2023/05/30 11:28:02;;;;;;;2.17;1.17;;;;;;;;;;5014373;28;20045;-68
2023/05/30 11:30:30;;;;;;;4.13;0.98;;;;;;;;;;5018099;28;20055;-68
2023/05/30 11:32:59;;;;;;;2.33;1.13;;;;;;;;;;5014138;28;20458;-67
2023/05/30 11:35:27;;;;;;;0.90;0.70;;;;;;;;;;5026965;28;20725;-67
2023/05/30 11:37:57;;;;;;;1.85;1.10;;;;;;;;;;5039117;28;20049;-67
2023/05/30 11:40:25;;;;;;;5.28;1.20;;;;;;;;;;5037165;28;20107;-67
2023/05/30 11:42:55;;;;;;;2.10;1.05;;;;;;;;;;5036025;28;20060;-70
2023/05/30 11:45:24;;;;;;;1.50;0.70;;;;;;;;;;5032885;28;20384;-66
2023/05/30 11:47:53;;;;;;;0.95;0.75;;;;;;;;;;5025213;28;21021;-65
2023/05/30 11:50:22;;;;;;;0.70;0.70;;;;;;;;;;5014951;28;20092;-66
2023/05/30 11:52:50;;;;;;;1.52;1.00;;;;;;;;;;5018402;28;20097;-67
2023/05/30 11:55:18;;;;;;;1.35;0.90;;;;;;;;;;5022098;28;20049;-66
2023/05/30 11:57:47;;;;;;;2.53;1.33;;;;;;;;;;5021646;28;20504;-70
2023/05/30 12:00:17;;;;;;;1.00;0.90;;;;;;;;;;5020869;28;20141;-69
2023/05/30 12:02:46;;;;;;;1.13;0.70;;;;;;;;;;5016933;28;20107;-67
2023/05/30 12:05:15;;;;;;;1.45;1.35;;;;;;;;;;5011662;28;20080;-65
2023/05/30 12:07:43;;;;;;;2.25;0.80;;;;;;;;;;5020959;28;20073;-66
2023/05/30 12:10:12;;;;;;;3.97;2.92;;;;;;;;;;5020639;28;20045;-65
2023/05/30 12:12:40;;;;;;;1.80;0.90;;;;;;;;;;5022279;28;20049;-65
2023/05/30 12:15:09;;;;;;;1.23;0.80;;;;;;;;;;5016734;28;20049;-65
2023/05/30 12:17:42;;;;;;;2.60;1.23;;;;;;;;;;5019020;28;20049;-69
2023/05/30 12:20:14;;;;;;;3.80;1.02;;;;;;;;;;5018393;28;20060;-66
2023/05/30 12:22:44;;;;;;;3.33;2.85;;;;;;;;;;5020646;28;20056;-64
2023/05/30 12:25:13;;;;;;;1.40;0.68;;;;;;;;;;5012035;28;20057;-68
2023/05/30 12:27:43;;;;;;;1.33;0.68;;;;;;;;;;5021188;28;20107;-65
2023/05/30 12:30:12;;;;;;;5.93;5.53;;;;;;;;;;5018258;28;20045;-66
2023/05/30 12:32:42;;;;;;;5.32;0.95;;;;;;;;;;5016836;28;20178;-64
2023/05/30 12:35:11;;;;;;;1.63;1.15;;;;;;;;;;5017252;28;20452;-66
2023/05/30 12:37:40;;;;;;;1.63;1.00;;;;;;;;;;5018126;28;20514;-67
2023/05/30 12:40:08;;;;;;;1.55;0.85;;;;;;;;;;5017007;28;20144;-64
2023/05/30 12:42:37;;;;;;;2.05;1.10;;;;;;;;;;5016173;28;20661;-65
2023/05/30 12:45:07;;;;;;;3.22;2.50;;;;;;;;;;5017129;28;20115;-64
2023/05/30 12:47:36;;;;;;;2.03;1.13;;;;;;;;;;5015854;28;20049;-65
2023/05/30 12:50:07;;;;;;;1.35;0.88;;;;;;;;;;5017108;28;20141;-65
2023/05/30 12:52:35;;;;;;;2.70;0.90;;;;;;;;;;5017530;28;20061;-64
2023/05/30 12:55:03;;;;;;;1.80;0.90;;;;;;;;;;5018302;28;20750;-65
2023/05/30 12:57:32;;;;;;;2.17;1.15;;;;;;;;;;5016024;28;20042;-65
2023/05/30 13:00:00;;;;;;;2.25;0.85;;;;;;;;;;5019040;28;20095;-69
2023/05/30 13:02:29;;;;;;;4.13;1.40;;;;;;;;;;5017027;28;20053;-65
2023/05/30 13:04:57;;;;;;;1.30;0.88;;;;;;;;;;5019506;28;20444;-67
2023/05/30 13:07:27;;;;;;;1.33;0.95;;;;;;;;;;5015207;28;20041;-67
2023/05/30 13:09:56;;;;;;;1.90;1.10;;;;;;;;;;5018167;28;20053;-67
2023/05/30 13:12:24;;;;;;;8.93;7.03;;;;;;;;;;5017198;28;20053;-65
2023/05/30 13:14:52;;;;;;;1.42;0.80;;;;;;;;;;5016907;28;20057;-65
2023/05/30 13:17:22;;;;;;;2.20;1.00;;;;;;;;;;5015091;28;20073;-66
2023/05/30 13:19:51;;;;;;;2.50;1.17;;;;;;;;;;5018925;28;20368;-65
2023/05/30 13:22:20;;;;;;;3.83;1.77;;;;;;;;;;5014200;28;20100;-69
2023/05/30 13:24:50;;;;;;;3.28;1.08;;;;;;;;;;5016700;28;20042;-67
2023/05/30 13:27:18;;;;;;;2.88;0.90;;;;;;;;;;5038577;28;20115;-64
2023/05/30 13:29:47;;;;;;;2.53;0.80;;;;;;;;;;5039371;28;20107;-67
2023/05/30 13:32:15;;;;;;;2.95;1.13;;;;;;;;;;5036778;28;20485;-67
2023/05/30 13:34:44;;;;;;;2.70;1.95;;;;;;;;;;5036904;28;20505;-66
2023/05/30 13:37:12;;;;;;;0.85;0.70;;;;;;;;;;5039198;28;20048;-65
2023/05/30 13:39:41;;;;;;;1.42;0.73;;;;;;;;;;5034134;28;20049;-66
2023/05/30 13:42:15;;;;;;;2.47;1.17;;;;;;;;;;5042074;28;20618;-64
2023/05/30 13:44:43;;;;;;;6.65;4.63;;;;;;;;;;5034191;28;20490;-68
2023/05/30 13:47:12;;;;;;;2.88;0.90;;;;;;;;;;5035005;28;20049;-66
2023/05/30 13:49:40;;;;;;;2.90;0.90;;;;;;;;;;5036985;28;20048;-67
2023/05/30 13:52:09;;;;;;;1.25;0.88;;;;;;;;;;5037496;28;20049;-67
2023/05/30 13:54:41;;;;;;;1.42;1.10;;;;;;;;;;5038111;28;20087;-64
2023/05/30 13:57:09;;;;;;;1.85;0.90;;;;;;;;;;5036056;28;20056;-67
2023/05/30 13:59:39;;;;;;;4.80;1.33;;;;;;;;;;5039530;28;20067;-66
2023/05/30 14:02:08;;;;;;;3.78;1.40;;;;;;;;;;5036981;28;20045;-65
2023/05/30 14:04:37;;;;;;;2.05;1.23;;;;;;;;;;5036262;28;20072;-70
2023/05/30 14:07:05;;;;;;;0.80;0.73;;;;;;;;;;5040106;28;20612;-65
2023/05/30 14:09:34;;;;;;;1.77;1.05;;;;;;;;;;5036818;28;20063;-67
2023/05/30 14:12:02;;;;;;;2.00;0.95;;;;;;;;;;5041672;28;20075;-67
2023/05/30 14:14:31;;;;;;;1.75;0.90;;;;;;;;;;5037612;28;20737;-67
2023/05/30 14:17:03;;;;;;;1.98;1.15;;;;;;;;;;5037208;28;20068;-67
2023/05/30 14:19:31;;;;;;;1.27;0.75;;;;;;;;;;5039776;28;20053;-67
2023/05/30 14:22:00;;;;;;;4.90;0.80;;;;;;;;;;5035418;28;20051;-67
2023/05/30 14:24:28;;;;;;;4.45;0.90;;;;;;;;;;5033393;28;20048;-68
2023/05/30 14:26:56;;;;;;;1.80;1.05;;;;;;;;;;5038110;28;20148;-68
2023/05/30 14:29:25;;;;;;;1.67;0.80;;;;;;;;;;5040688;28;20138;-67
2023/05/30 14:31:53;;;;;;;2.75;1.15;;;;;;;;;;5038815;28;20049;-68
2023/05/30 14:34:23;;;;;;;1.27;0.80;;;;;;;;;;5039240;28;20047;-67
2023/05/30 14:36:52;;;;;;;1.38;0.70;;;;;;;;;;5041450;28;20559;-68
2023/05/30 14:39:20;;;;;;;1.42;0.90;;;;;;;;;;5040078;28;20053;-67
2023/05/30 14:41:50;;;;;;;1.77;0.73;;;;;;;;;;5037662;28;20289;-67
2023/05/30 14:44:18;;;;;;;3.05;1.10;;;;;;;;;;5038856;28;20063;-68
2023/05/30 14:46:46;;;;;;;2.13;1.13;;;;;;;;;;5037903;28;20041;-67
2023/05/30 14:49:15;;;;;;;1.92;1.15;;;;;;;;;;5039117;28;20052;-67
2023/05/30 14:51:45;;;;;;;1.45;0.80;;;;;;;;;;5038959;28;20049;-71
2023/05/30 14:54:13;;;;;;;1.50;0.88;;;;;;;;;;5039372;28;20053;-67
2023/05/30 14:56:42;;;;;;;1.77;1.00;;;;;;;;;;5039285;28;20049;-69
2023/05/30 14:59:11;;;;;;;2.75;1.08;;;;;;;;;;5037037;28;20037;-67